This is the latest recevied weather packets stored in our database for station/object OE-11150. If no packets are shown the sender has not sent any weather packets the latest 10 day(s).
| Time | Temp. | Humidity | Pressure | Rain* | Wind** | Luminosity | Snow |
|---|---|---|---|---|---|---|---|
| 1787839881 | 30° C | 56% | 1011.2 hPa | 0 mm | - | - | - |
| 1787839508 | 30° C | 55% | 1011.4 hPa | 0 mm | - | - | - |
| 1787838908 | 30° C | 56% | 1011.3 hPa | 0 mm | - | - | - |
| 1787838081 | 30° C | 57% | 1011.3 hPa | 0 mm | - | - | - |
| 1787837708 | 29.44° C | 57% | 1011.5 hPa | 0 mm | - | - | - |
| 1787837108 | 29.44° C | 52% | 1011.5 hPa | 0 mm | - | - | - |
| 1787836281 | 29.44° C | 53% | 1011.6 hPa | 0 mm | - | - | - |
| 1787835907 | 30° C | 56% | 1011.6 hPa | 0 mm | - | - | - |
| 1787835308 | 29.44° C | 53% | 1011.8 hPa | 0 mm | - | - | - |
| 1787834481 | 28.89° C | 53% | 1011.9 hPa | 0 mm | - | - | - |
| 1787834107 | 29.44° C | 54% | 1012 hPa | 0 mm | - | - | - |
| 1787833508 | 28.89° C | 54% | 1012.1 hPa | 0 mm | - | - | - |
| 1787832681 | 28.89° C | 53% | 1012.3 hPa | 0 mm | - | - | - |
| 1787832308 | 28.89° C | 52% | 1012.3 hPa | 0 mm | - | - | - |
| 1787831707 | 28.33° C | 52% | 1012.6 hPa | 0 mm | - | - | - |
| 1787830881 | 28.33° C | 52% | 1012.7 hPa | 0 mm | - | - | - |
| 1787830507 | 28.33° C | 54% | 1012.8 hPa | 0 mm | - | - | - |
| 1787829907 | 28.33° C | 54% | 1012.7 hPa | 0 mm | - | - | - |
| 1787829081 | 27.78° C | 52% | 1012.9 hPa | 0 mm | - | - | - |
| 1787828708 | 27.78° C | 49% | 1012.9 hPa | 0 mm | - | - | - |
| 1787828108 | 27.78° C | 49% | 1013 hPa | 0 mm | - | - | - |
| 1787827280 | 27.78° C | 50% | 1013.1 hPa | 0 mm | - | - | - |
| 1787826907 | 27.22° C | 51% | 1013.2 hPa | 0 mm | - | - | - |
| 1787826308 | 27.78° C | 52% | 1013.2 hPa | 0 mm | - | - | - |
| 1787825481 | 27.22° C | 54% | 1013.3 hPa | 0 mm | - | - | - |
* Rain latest hour (hover to see other rain measurements)
** Current wind speed in m/s (hover to see current wind gust speed)